Startpagina
METAR-TAF:

METAR-TAF

Vliegvelden :

Vliegbasis Kleine-Brogel

Peer, België

breedte: 51-10N, lengte: 005-28E, hoogte: 55 m

Actueel weer

Dit bericht is 30 minuten geleden gemaakt, om 16:25 UTC
Wind 3 kt uit het westzuidwesten
Temperatuur 5°C
Vochtigheid 81%
Druk 1024 hPa
Zicht 10 km of meer
Verspreide wolken op 3000 ft
Verspreide wolken op 5000 ft

METAR: EBBL 111625Z 25003KT 9999 SCT030 SCT050 05/02 Q1024 BLU BLU

Tijdstip: 17:55 (16:55 UTC)

Verwachting

Dit bericht is 5 uur en het 14 minuten geleden gemaakt, om 11:41 UTC
Verwachting geldig van 11 om 13 UTC tot 11 om 22 UTC
Wind 5 kt uit het westen
Zicht 10 km of meer
Weinig wolken op 3500 ft
Verspreide wolken op 4500 ft
Kans 30% :
Tijdelijke
van 11 om 17 UTC tot 11 om 20 UTC
Zicht: 4000 m
nevel

TAF: EBBL 111141Z 1113/1122 27005KT 9999 FEW035 SCT045 PROB30 TEMPO 1117/1120 4000 BR

Waarnemingen en weersverwachtingen van meer dan 4000 vliegvelden (METAR en TAF).

De beschikbare stations zijn de gele en rode punten op de kaart.

Ga met uw muis naar het station om de naam te zien.

Klik dan om waarnemingen en weersverwachtingen te zien.

kaart wijzigen: klik op de groene knoppen met een zwart kruis om in te zoomen, op de groene knop met een streepje om uit te zoomen of op de groene pijlen voor aangrenzende kaarten.


METAR-TAF: